Aviation Digital Data Service (ADDS)

Output produced by TAFs form (1130 UTC 19 January 2018)
found at http://www.aviationweather.gov/adds/tafs/
 
RJTT 191100Z 08017KT 9999 FEW025 BKN070 09/03 Q1018 NOSIG RMK 1CU025 5AC070 A3008
TAF RJTT 191108Z 1912/2018 07016KT 9999 FEW020 BKN040 
     BECMG 1913/1915 03012KT
       
RJOO 191100Z 30003KT 9999 FEW020 06/M01 Q1018 RMK 1CU020 A3008
TAF RJOO 191106Z 1912/2018 32004KT 9999 FEW025 
     BECMG 2000/2003 22005KT 
     BECMG 2006/2009 32004KT
       
RJAA 191100Z 07005KT 9999 FEW030 BKN070 06/00 Q1018 NOSIG RMK 1CU030 5AC070 A3009
TAF RJAA 191105Z 1912/2018 08005KT 9999 FEW030 
     BECMG 1912/1914 03004KT
       
RJBB 191100Z 06008KT CAVOK 09/02 Q1018 NOSIG
TAF RJBB 191105Z 1912/2018 07008KT 9999 FEW030 
     BECMG 2000/2003 30006KT 
     BECMG 2009/2012 04007KT
       
RJCC 191100Z VRB02KT 9999 FEW030 SCT045 M09/M09 Q1019 RMK 1CU030 4CU045 A3010
TAF RJCC 191105Z 1912/2018 15005KT 9999 FEW001 SCT003 
     TEMPO 1915/1921 0700 FZFG VV001 
     BECMG 2003/2006 18016KT 
     TEMPO 2006/2009 1500 -SHSN FEW005 BKN008 
     BECMG 2009/2012 24008KT
       
RJGG 191100Z 28005KT 9999 FEW040 08/01 Q1018 NOSIG
TAF RJGG 191110Z 1912/2018 32008KT 9999 FEW030
       
RJFF 191100Z 16004KT 8000 FEW045 08/04 Q1019 RMK 1SC045 A3010
TAF RJFF 191107Z 1912/2018 15006KT 7000 FEW030 
     BECMG 2000/2003 33008KT 
     BECMG 2009/2012 14005KT
       
ROAH 191100Z 05008KT 9999 -SHRA FEW005 SCT015 BKN035 16/15 Q1018 RMK 2ST005 4CU015 5CU035 A3008
TAF ROAH 191105Z 1912/2018 03012KT 9000 FEW008 BKN015 
     TEMPO 1912/1918 3000 SHRA BR FEW005 BKN008